Weather reports worldwide

Advertisment
Luchon/SA, France (7724): temperature & dewpoint: 13.07.2018 13:00:00 - 19.07.2018 13:00:00 (CEST)Luchon/SA, France (7724): wind speed & gusts: 13.07.2018 13:00:00 - 19.07.2018 13:00:00 (CEST)Luchon/SA, France (7724): wind direction: 13.07.2018 13:00:00 - 19.07.2018 13:00:00 (CEST)Luchon/SA, France (7724): precipitation: 13.07.2018 13:00:00 - 19.07.2018 13:00:00 (CEST)
Date & Time tt [°C] td [°C] ff [km/h] ff [kn] fx [km/h] fx [kn] dd rr [mm]
19.07.2018 13:00:00 25,5 14,3 8 4 13 7 NE 0,0
19.07.2018 12:00:00 24,1 13,3 4 2 11 6 ENE 0,0
19.07.2018 11:00:00 22,1 13,4 4 2 8 4 ENE 0,0
19.07.2018 10:00:00 19,4 14,2 4 2 9 5 NE 0,0
19.07.2018 09:00:00 16,0 13,8 4 2 11 6 ENE 0,0
19.07.2018 08:00:00 12,9 12,3 0 0 4 2 N -
19.07.2018 07:00:00 12,4 11,6 4 2 5 3 SSE 0,2
19.07.2018 06:00:00 13,4 12,6 2 1 8 4 S 0,0
19.07.2018 05:00:00 13,9 12,9 4 2 9 5 SE 0,0
19.07.2018 04:00:00 14,6 13,6 0 0 8 4 N 0,0
19.07.2018 03:00:00 15,6 14,0 4 2 24 13 NNE 0,0
19.07.2018 02:00:00 16,3 14,5 8 4 24 13 SSE -
19.07.2018 01:00:00 16,3 15,3 13 7 22 12 S 0,0
19.07.2018 00:00:00 16,6 15,6 2 1 11 6 NE 0,0
18.07.2018 23:00:00 17,6 16,5 0 0 11 6 N 0,0
18.07.2018 22:00:00 18,5 17,2 5 3 9 5 SSE 0,0
18.07.2018 21:00:00 19,7 17,8 0 0 18 10 N 0,2
18.07.2018 20:00:00 20,7 18,3 5 3 34 18 SSW -
18.07.2018 19:00:00 22,1 16,8 13 7 34 18 N 0,4
18.07.2018 18:00:00 24,5 17,5 11 6 42 23 NW 0,2
18.07.2018 17:00:00 27,0 16,6 13 7 35 19 N 0,0
18.07.2018 16:00:00 30,9 8,6 18 10 35 19 S 0,0
18.07.2018 15:00:00 31,1 8,7 8 4 29 16 SSE 0,0
18.07.2018 14:00:00 27,3 15,0 8 4 39 21 ESE -
18.07.2018 13:00:00 27,5 13,8 2 1 13 7 E 0,0
18.07.2018 12:00:00 25,3 13,8 2 1 9 5 NE 0,0
18.07.2018 11:00:00 22,8 15,4 4 2 11 6 E 0,0
18.07.2018 10:00:00 19,6 14,8 4 2 8 4 ENE 0,0
18.07.2018 09:00:00 15,7 13,9 4 2 8 4 ENE 0,0
18.07.2018 08:00:00 12,7 12,1 2 1 5 3 SE -
18.07.2018 07:00:00 12,5 11,9 2 1 5 3 W 0,0
18.07.2018 06:00:00 12,2 11,4 2 1 5 3 N 0,0
18.07.2018 05:00:00 12,9 12,1 0 0 8 4 N 0,2
18.07.2018 04:00:00 12,9 12,0 0 0 4 2 N 0,0
18.07.2018 03:00:00 13,8 12,9 2 1 8 4 NNW 0,0
18.07.2018 02:00:00 14,4 13,1 0 0 9 5 N -
18.07.2018 01:00:00 15,0 13,2 0 0 16 9 N 0,0
18.07.2018 00:00:00 16,4 14,2 8 4 18 10 S 0,0
17.07.2018 23:00:00 16,9 14,9 4 2 15 8 E 0,0
17.07.2018 22:00:00 17,4 15,2 0 0 5 3 N 0,0
17.07.2018 21:00:00 18,6 15,1 0 0 5 3 N 0,0
17.07.2018 20:00:00 20,9 14,8 4 2 18 10 WNW -
17.07.2018 19:00:00 22,9 14,2 9 5 29 16 NNW 0,0
17.07.2018 18:00:00 23,9 14,3 15 8 34 18 N 0,0
17.07.2018 17:00:00 24,1 14,5 13 7 41 22 N 0,0
17.07.2018 16:00:00 23,8 14,2 18 10 37 20 N 0,0
17.07.2018 15:00:00 23,4 14,4 22 12 41 22 N 0,0
17.07.2018 14:00:00 22,8 13,8 22 12 35 19 N -
17.07.2018 13:00:00 22,2 14,6 18 10 34 18 N 0,0
17.07.2018 12:00:00 21,5 13,9 13 7 28 15 N 0,0
17.07.2018 11:00:00 20,0 14,4 4 2 13 7 E 0,0
17.07.2018 10:00:00 18,0 13,5 5 3 11 6 NNE 0,0
17.07.2018 09:00:00 16,0 13,3 4 2 8 4 NNE 0,0
17.07.2018 08:00:00 12,9 12,1 4 2 9 5 ESE -
17.07.2018 07:00:00 13,1 12,3 0 0 8 4 N 0,0
17.07.2018 06:00:00 14,1 13,1 0 0 5 3 N 0,0
17.07.2018 05:00:00 15,0 14,0 0 0 5 3 N 0,0
17.07.2018 04:00:00 15,2 14,1 2 1 11 6 ENE 0,0
17.07.2018 03:00:00 15,6 14,6 5 3 9 5 N 0,0
17.07.2018 02:00:00 16,0 15,0 0 0 11 6 N -
17.07.2018 01:00:00 16,2 15,1 0 0 9 5 N 0,0
17.07.2018 00:00:00 16,3 15,2 4 2 8 4 SSE 0,0
16.07.2018 23:00:00 16,5 15,2 4 2 8 4 ENE 0,0
16.07.2018 22:00:00 16,8 15,0 0 0 8 4 N 0,0
16.07.2018 21:00:00 18,0 14,7 4 2 9 5 NE 0,0
16.07.2018 20:00:00 18,7 15,2 4 2 9 5 E -
16.07.2018 19:00:00 19,2 14,7 0 0 11 6 N 0,0
16.07.2018 18:00:00 20,8 14,0 0 0 - - N 0,0
16.07.2018 17:00:00 20,3 14,2 - - - - - 0,0
16.07.2018 16:00:00 19,6 15,3 - - - - - 0,4
16.07.2018 15:00:00 21,1 12,0 - - - - - 0,0
16.07.2018 14:00:00 19,2 13,4 - - - - - -
16.07.2018 13:00:00 18,0 14,7 - - - - - 0,0
16.07.2018 12:00:00 18,4 14,7 - - - - - 1,0
16.07.2018 11:00:00 15,8 14,3 - - - - - 6,0
16.07.2018 10:00:00 15,8 14,8 - - - - - 10,0
16.07.2018 09:00:00 17,0 16,0 - - - - - 10,0
16.07.2018 08:00:00 17,5 16,4 - - - - - -
16.07.2018 07:00:00 17,7 16,6 - - - - - 1,0
16.07.2018 06:00:00 17,9 16,2 - - - - - 6,0
16.07.2018 05:00:00 19,0 15,9 16 9 29 16 NE 0,0
16.07.2018 04:00:00 19,2 16,1 21 11 52 28 NNE 0,0
16.07.2018 03:00:00 20,2 17,8 22 12 35 19 NNE 0,0
16.07.2018 02:00:00 20,9 18,7 4 2 13 7 NW -
16.07.2018 01:00:00 20,9 18,3 4 2 11 6 S 0,0
16.07.2018 00:00:00 21,2 18,2 2 1 11 6 SW 0,0
15.07.2018 23:00:00 21,5 18,3 2 1 8 4 SSE 0,0
15.07.2018 22:00:00 22,7 18,2 2 1 16 9 SSE 0,0
15.07.2018 21:00:00 24,1 18,3 8 4 28 15 NE 0,0
15.07.2018 20:00:00 25,1 18,1 15 8 29 16 N -
15.07.2018 19:00:00 26,2 17,6 9 5 31 17 N 0,0
15.07.2018 18:00:00 26,7 17,5 15 8 39 21 N 0,0
15.07.2018 17:00:00 27,5 18,5 18 10 39 21 N 0,0
15.07.2018 16:00:00 27,6 18,0 21 11 44 24 N 0,0
15.07.2018 15:00:00 27,7 17,5 24 13 44 24 N 0,0
15.07.2018 14:00:00 27,4 17,0 24 13 46 25 N -
15.07.2018 13:00:00 27,1 17,6 16 9 29 16 N 0,0
15.07.2018 12:00:00 26,2 16,7 4 2 15 8 NE 0,0
15.07.2018 11:00:00 24,0 15,2 4 2 11 6 S 0,0
15.07.2018 10:00:00 22,1 16,1 4 2 9 5 E 0,0
15.07.2018 09:00:00 19,5 16,0 4 2 15 8 SSE 0,0
15.07.2018 08:00:00 17,4 15,2 4 2 21 11 E -
15.07.2018 07:00:00 16,3 14,7 2 1 13 7 ESE 0,0
15.07.2018 06:00:00 16,6 15,0 4 2 13 7 ESE 0,0
15.07.2018 05:00:00 16,6 14,8 5 3 9 5 SSE 0,0
15.07.2018 04:00:00 18,6 14,9 4 2 16 9 SW 0,0
15.07.2018 03:00:00 19,0 14,5 4 2 28 15 NNE 0,0
15.07.2018 02:00:00 19,2 14,9 11 6 26 14 N -
15.07.2018 01:00:00 18,6 16,6 2 1 9 5 N 0,0
15.07.2018 00:00:00 18,9 16,7 5 3 16 9 SSE 0,0
14.07.2018 23:00:00 20,5 17,7 8 4 16 9 S 0,0
14.07.2018 22:00:00 20,7 17,7 4 2 8 4 SSE 0,0
14.07.2018 21:00:00 23,0 18,3 2 1 15 8 SW 0,0
14.07.2018 20:00:00 24,8 17,8 8 4 29 16 NNE -
14.07.2018 19:00:00 26,4 17,2 16 9 41 22 N 0,0
14.07.2018 18:00:00 27,5 17,4 16 9 34 18 N 0,0
14.07.2018 17:00:00 27,3 17,5 18 10 35 19 N 0,0
14.07.2018 16:00:00 27,4 18,1 22 12 44 24 N 0,0
14.07.2018 15:00:00 27,1 19,2 22 12 44 24 N 0,0
14.07.2018 14:00:00 27,0 17,5 24 13 41 22 N -
14.07.2018 13:00:00 26,7 16,9 18 10 35 19 N 0,0
14.07.2018 12:00:00 25,5 17,4 21 11 35 19 NNE 0,0
14.07.2018 11:00:00 23,8 16,3 9 5 16 9 N 0,0
14.07.2018 10:00:00 22,2 16,5 4 2 9 5 SE 0,0
14.07.2018 09:00:00 19,3 16,5 4 2 9 5 NE 0,0
14.07.2018 08:00:00 17,8 15,8 4 2 18 10 W -
14.07.2018 07:00:00 16,7 15,6 8 4 11 6 SSE 0,0
14.07.2018 06:00:00 17,4 15,7 4 2 13 7 N 0,0
14.07.2018 05:00:00 17,9 15,7 4 2 16 9 ESE 0,0
14.07.2018 04:00:00 18,0 15,8 9 5 16 9 SSE 0,0
14.07.2018 03:00:00 18,1 15,9 8 4 13 7 ESE 0,0
14.07.2018 02:00:00 17,7 15,3 4 2 9 5 SSE -
14.07.2018 01:00:00 18,3 15,2 4 2 37 20 E 0,0
14.07.2018 00:00:00 19,1 15,2 28 15 46 25 N 0,0
13.07.2018 23:00:00 19,9 17,5 8 4 13 7 NNE 0,0
13.07.2018 22:00:00 21,0 17,6 8 4 13 7 SSE 0,0
13.07.2018 21:00:00 22,9 18,2 4 2 13 7 S 0,0
13.07.2018 20:00:00 24,0 18,6 4 2 9 5 E -
13.07.2018 19:00:00 26,0 18,4 4 2 21 11 W 0,0
13.07.2018 18:00:00 25,0 19,1 11 6 18 10 SSW 0,0
13.07.2018 17:00:00 25,2 18,6 9 5 18 10 S 0,0
13.07.2018 16:00:00 25,0 17,2 5 3 11 6 S 0,0
13.07.2018 15:00:00 25,9 13,7 2 1 22 12 NE 0,0
13.07.2018 14:00:00 25,6 15,9 15 8 29 16 N -
13.07.2018 13:00:00 24,2 16,2 16 9 35 19 N 0,0

tt = temperature
td = dewpoint
ff = wind speed
fx = gusts
dd = wind direction
rr = precipitation

Next stations